Time;durP1;ratioP1;P1;durP2;ratioP2;P2;SDS_P1;SDS_P2;PMS_P1;PMS_P2;Temp;Humidity;BMP_temperature;BMP_pressure;BME280_temperature;BME280_humidity;BME280_pressure;Samples;Min_cycle;Max_cycle;Signal;HPM_P1;HPM_P2
2022/09/23 00:00:46;;;;;;;;;;;;;;;21.88;62.27;99988.16;7317511;19;129271;-38
2022/09/23 00:03:12;;;;;;;;;;;;;;;21.88;61.61;99988.97;7317995;19;130902;-37
2022/09/23 00:05:37;;;;;;;;;;;;;;;21.87;61.72;99982.09;7318428;19;129715;-37
2022/09/23 00:08:06;;;;;;;;;;;;;;;21.78;61.27;99967.16;7317893;19;128908;-41
2022/09/23 00:10:35;;;;;;;;;;;;;;;21.89;62.07;99980.19;7318741;19;131381;-37
2022/09/23 00:13:00;;;;;;;;;;;;;;;21.91;61.37;99983.47;7317807;19;130480;-36
2022/09/23 00:15:26;;;;;;;;;;;;;;;21.89;61.23;99980.19;7318241;19;129099;-37
2022/09/23 00:17:51;;;;;;;;;;;;;;;21.89;61.93;99980.19;7316664;19;129423;-41
2022/09/23 00:20:16;;;;;;;;;;;;;;;21.92;61.81;99979.91;7319143;19;129474;-37
2022/09/23 00:22:42;;;;;;;;;;;;;;;21.92;61.76;99974.69;7315639;19;129780;-37
2022/09/23 00:25:08;;;;;;;;;;;;;;;21.92;61.82;99974.69;7317425;19;128974;-39
2022/09/23 00:27:33;;;;;;;;;;;;;;;21.91;62.17;99973.00;7317527;19;129208;-40
2022/09/23 00:29:59;;;;;;;;;;;;;;;21.90;61.69;99965.28;7316644;19;130566;-39
2022/09/23 00:32:25;;;;;;;;;;;;;;;21.88;61.57;99965.41;7313902;19;130169;-37
2022/09/23 00:34:51;;;;;;;;;;;;;;;21.84;61.30;99969.28;7317363;19;128861;-37
2022/09/23 00:37:16;;;;;;;;;;;;;;;21.81;61.75;99956.47;7316042;19;129936;-37
2022/09/23 00:39:44;;;;;;;;;;;;;;;21.90;61.46;99965.28;7317360;19;129938;-37
2022/09/23 00:42:12;;;;;;;;;;;;;;;21.88;62.10;99957.56;7316037;19;130328;-38
2022/09/23 00:44:54;;;;;;;;;;;;;;;21.90;62.07;99962.66;7316980;19;129797;-37
2022/09/23 00:47:22;;;;;;;;;;;;;;;21.88;61.26;99962.81;7318527;19;129158;-36
2022/09/23 00:49:55;;;;;;;;;;;;;;;21.89;61.75;99959.25;7318005;19;130133;-39
2022/09/23 00:52:22;;;;;;;;;;;;;;;21.89;62.06;99963.63;7310734;19;131565;-40
2022/09/23 00:54:50;;;;;;;;;;;;;;;21.86;61.64;99959.50;7305841;19;129046;-37
2022/09/23 00:57:16;;;;;;;;;;;;;;;21.87;61.94;99950.69;7313902;19;129125;-37
2022/09/23 00:59:42;;;;;;;;;;;;;;;21.86;61.52;99956.91;7317549;19;130116;-38
2022/09/23 01:02:08;;;;;;;;;;;;;;;21.89;62.22;99951.38;7314474;19;129642;-37
2022/09/23 01:04:34;;;;;;;;;;;;;;;21.88;61.45;99947.09;7306944;19;129080;-37
2022/09/23 01:06:59;;;;;;;;;;;;;;;21.84;61.58;99955.34;7313904;19;129845;-37
2022/09/23 01:09:25;;;;;;;;;;;;;;;21.83;61.64;99948.47;7315295;19;129130;-40
2022/09/23 01:12:14;;;;;;;;;;;;;;;21.91;61.66;99946.00;7314348;19;130396;-38
2022/09/23 01:15:03;;;;;;;;;;;;;;;21.93;62.00;99942.28;7311757;19;145342;-38
2022/09/23 01:17:46;;;;;;;;;;;;;;;21.92;62.40;99943.25;7315280;19;129186;-37
2022/09/23 01:20:27;;;;;;;;;;;;;;;21.92;61.56;99938.03;7315427;19;129930;-39
2022/09/23 01:22:55;;;;;;;;;;;;;;;21.89;61.91;99943.53;7313393;19;130331;-38
2022/09/23 01:25:35;;;;;;;;;;;;;;;21.89;61.13;99930.44;7314509;19;129732;-38
2022/09/23 01:28:19;;;;;;;;;;;;;;;21.76;61.39;99915.91;7302081;19;129476;-39
2022/09/23 01:30:47;;;;;;;;;;;;;;;21.83;61.34;99927.53;7315022;19;129217;-36
2022/09/23 01:33:23;;;;;;;;;;;;;;;21.84;61.88;99930.03;7315600;19;130676;-37
2022/09/23 01:35:55;;;;;;;;;;;;;;;21.87;61.53;99928.91;7315767;19;129294;-37
2022/09/23 01:38:38;;;;;;;;;;;;;;;21.89;62.00;99925.22;7311618;19;129094;-41
2022/09/23 01:41:26;;;;;;;;;;;;;;;21.88;61.34;99926.16;7311570;19;129266;-40
2022/09/23 01:43:57;;;;;;;;;;;;;;;21.86;61.77;99922.88;7315540;19;129252;-39
2022/09/23 01:46:34;;;;;;;;;;;;;;;21.85;61.67;99918.56;7306173;19;129232;-38
2022/09/23 01:49:05;;;;;;;;;;;;;;;21.87;61.63;99914.03;7315373;19;128761;-39
2022/09/23 01:51:39;;;;;;;;;;;;;;;21.89;62.06;99916.53;7314418;19;130129;-38
2022/09/23 01:54:04;;;;;;;;;;;;;;;21.89;61.43;99913.91;7315446;19;129659;-37
2022/09/23 01:56:33;;;;;;;;;;;;;;;21.87;61.36;99911.41;7315199;19;129345;-38
2022/09/23 01:59:01;;;;;;;;;;;;;;;21.92;61.77;99908.41;7315158;19;129217;-39
2022/09/23 02:01:33;;;;;;;;;;;;;;;21.88;61.63;99909.66;7313931;19;129328;-38
2022/09/23 02:04:03;;;;;;;;;;;;;;;21.81;61.85;99887.56;7315277;19;129555;-38
2022/09/23 02:06:47;;;;;;;;;;;;;;;21.89;61.82;99900.81;7315016;19;129371;-37
2022/09/23 02:09:18;;;;;;;;;;;;;;;21.78;61.53;99883.41;7315074;19;129161;-39
2022/09/23 02:11:44;;;;;;;;;;;;;;;21.90;62.25;99903.28;7313375;19;130017;-38
2022/09/23 02:14:20;;;;;;;;;;;;;;;21.89;61.91;99906.06;7315013;19;130584;-37
2022/09/23 02:16:47;;;;;;;;;;;;;;;21.88;62.12;99897.34;7313722;19;129282;-37
2022/09/23 02:19:30;;;;;;;;;;;;;;;21.90;61.77;99895.44;7314019;19;129047;-38
2022/09/23 02:22:16;;;;;;;;;;;;;;;21.91;61.62;99898.91;7311895;19;129462;-38
2022/09/23 02:24:41;;;;;;;;;;;;;;;21.90;61.35;99895.44;7313721;19;130608;-42
2022/09/23 02:27:16;;;;;;;;;;;;;;;21.88;62.17;99884.28;7315090;19;129537;-39
2022/09/23 02:29:53;;;;;;;;;;;;;;;21.94;61.95;99883.75;7311547;19;129210;-40
2022/09/23 02:32:21;;;;;;;;;;;;;;;21.96;61.51;99881.81;7311654;19;129407;-37
2022/09/23 02:35:08;;;;;;;;;;;;;;;21.92;61.51;99879.59;7312646;19;130436;-39
2022/09/23 02:37:52;;;;;;;;;;;;;;;21.91;61.72;99885.81;7313959;19;129052;-36
2022/09/23 02:40:37;;;;;;;;;;;;;;;21.91;61.64;99880.56;7313235;19;130779;-38
2022/09/23 02:43:02;;;;;;;;;;;;;;;21.89;61.16;99875.47;7312502;19;129338;-38
2022/09/23 02:45:28;;;;;;;;;;;;;;;21.93;61.82;99876.84;7312389;19;129872;-36
2022/09/23 02:47:57;;;;;;;;;;;;;;;21.91;61.76;99875.34;7313286;19;130083;-35
2022/09/23 02:50:23;;;;;;;;;;;;;;;21.81;61.82;99857.00;7314201;19;129023;-37
2022/09/23 02:52:48;;;;;;;;;;;;;;;21.92;61.92;99864.72;7310385;19;129667;-38
2022/09/23 02:55:15;;;;;;;;;;;;;;;21.91;61.16;99867.50;7312775;19;130237;-40
2022/09/23 02:57:41;;;;;;;;;;;;;;;21.82;61.88;99849.97;7306714;19;130192;-41
2022/09/23 03:00:06;;;;;;;;;;;;;;;21.86;61.80;99860.03;7309022;19;130135;-39
2022/09/23 03:02:34;;;;;;;;;;;;;;;21.85;61.77;99865.38;7310630;19;131074;-37
2022/09/23 03:05:14;;;;;;;;;;;;;;;21.86;61.38;99865.28;7312945;19;130429;-39
2022/09/23 03:07:40;;;;;;;;;;;;;;;21.87;61.97;99866.94;7312370;19;129502;-41
2022/09/23 03:10:20;;;;;;;;;;;;;;;21.90;61.57;99857.97;7310539;19;130416;-38
2022/09/23 03:13:00;;;;;;;;;;;;;;;21.89;61.89;99859.78;7309253;19;129529;-36
2022/09/23 03:15:44;;;;;;;;;;;;;;;21.92;61.99;99859.50;7311630;19;129486;-38
2022/09/23 03:18:10;;;;;;;;;;;;;;;21.92;61.43;99850.81;7310162;19;129869;-40
2022/09/23 03:20:54;;;;;;;;;;;;;;;21.86;61.90;99846.97;7312865;19;129061;-35
2022/09/23 03:23:24;;;;;;;;;;;;;;;21.86;62.14;99849.56;7312271;19;129471;-39
2022/09/23 03:25:52;;;;;;;;;;;;;;;21.91;61.42;99842.13;7312193;19;129774;-38
2022/09/23 03:28:20;;;;;;;;;;;;;;;21.90;61.97;99845.72;7310960;19;128875;-36
2022/09/23 03:30:46;;;;;;;;;;;;;;;21.91;62.01;99838.69;7311549;19;128985;-37
2022/09/23 03:33:15;;;;;;;;;;;;;;;21.89;61.39;99845.84;7310126;19;131038;-37
2022/09/23 03:38:32;;;;;;;;;;;;;;;21.84;62.13;99830.56;7300477;19;129982;-39
2022/09/23 03:41:00;;;;;;;;;;;;;;;21.82;61.16;99827.25;7311490;19;129032;-39
2022/09/23 03:43:25;;;;;;;;;;;;;;;21.72;62.27;99813.28;7309493;19;129200;-39
2022/09/23 03:45:52;;;;;;;;;;;;;;;21.87;61.88;99835.50;7311062;19;129999;-38
2022/09/23 03:48:17;;;;;;;;;;;;;;;21.93;61.67;99829.72;7311357;19;129643;-38
2022/09/23 03:50:43;;;;;;;;;;;;;;;21.92;61.50;99828.09;7311301;19;129604;-39
2022/09/23 03:53:08;;;;;;;;;;;;;;;21.92;61.84;99828.09;7310854;19;129369;-39
2022/09/23 03:55:33;;;;;;;;;;;;;;;21.91;62.13;99829.03;7310628;19;133545;-38
2022/09/23 03:57:59;;;;;;;;;;;;;;;21.89;62.41;99828.34;7310036;19;129357;-37
2022/09/23 04:00:24;;;;;;;;;;;;;;;21.87;61.23;99830.28;7310692;19;129336;-38
2022/09/23 04:02:49;;;;;;;;;;;;;;;21.90;62.02;99827.38;7307838;19;130392;-36
2022/09/23 04:05:14;;;;;;;;;;;;;;;21.93;61.28;99823.69;7310791;19;130954;-37
2022/09/23 04:07:40;;;;;;;;;;;;;;;21.91;61.90;99821.19;7310958;19;129189;-38
2022/09/23 04:10:05;;;;;;;;;;;;;;;21.91;61.87;99826.41;7310545;19;130471;-39
2022/09/23 04:12:31;;;;;;;;;;;;;;;21.78;61.35;99810.13;7309452;19;130353;-37
2022/09/23 04:14:56;;;;;;;;;;;;;;;21.88;61.74;99818.84;7310913;19;129594;-37
2022/09/23 04:17:21;;;;;;;;;;;;;;;21.91;61.33;99820.38;7309389;19;128948;-34
2022/09/23 04:19:46;;;;;;;;;;;;;;;21.89;62.00;99817.88;7309123;19;129474;-38
2022/09/23 04:22:12;;;;;;;;;;;;;;;21.91;61.36;99810.72;7300680;19;131460;-40
2022/09/23 04:24:37;;;;;;;;;;;;;;;21.87;61.84;99819.81;7306472;19;130620;-39
2022/09/23 04:27:02;;;;;;;;;;;;;;;21.84;62.01;99808.78;7310951;19;129028;-39
2022/09/23 04:29:28;;;;;;;;;;;;;;;21.88;61.43;99805.75;7310477;19;128862;-39
2022/09/23 04:31:53;;;;;;;;;;;;;;;21.90;62.28;99808.22;7309328;19;130590;-37
2022/09/23 04:34:19;;;;;;;;;;;;;;;21.82;61.89;99801.06;7309358;19;129291;-39
2022/09/23 04:36:45;;;;;;;;;;;;;;;21.93;61.94;99803.56;7310558;19;129276;-39
2022/09/23 04:39:11;;;;;;;;;;;;;;;21.95;61.84;99806.03;7310403;19;129334;-36
2022/09/23 04:41:36;;;;;;;;;;;;;;;21.90;61.47;99809.06;7307496;19;128965;-38
2022/09/23 04:44:02;;;;;;;;;;;;;;;21.91;61.70;99810.72;7309555;19;130207;-38
2022/09/23 04:46:27;;;;;;;;;;;;;;;21.91;61.79;99808.09;7315456;19;129047;-38
2022/09/23 04:48:52;;;;;;;;;;;;;;;21.90;62.27;99806.44;7315038;19;129162;-40
2022/09/23 04:51:19;;;;;;;;;;;;;;;21.90;61.83;99801.22;7314870;19;130179;-39
2022/09/23 04:53:45;;;;;;;;;;;;;;;21.92;61.63;99796.66;7314930;19;130354;-38
2022/09/23 04:56:18;;;;;;;;;;;;;;;21.94;61.85;99805.22;7314730;19;129512;-37
2022/09/23 04:58:44;;;;;;;;;;;;;;;21.89;61.32;99804.81;7313901;19;129220;-39
2022/09/23 05:01:17;;;;;;;;;;;;;;;21.87;61.64;99804.09;7312758;19;130057;-38
2022/09/23 05:03:43;;;;;;;;;;;;;;;21.89;61.76;99804.81;7314441;19;129143;-36
2022/09/23 05:06:10;;;;;;;;;;;;;;;21.91;61.85;99804.66;7315235;19;129574;-37
2022/09/23 05:08:36;;;;;;;;;;;;;;;21.89;61.61;99796.94;7316858;19;129594;-38
2022/09/23 05:11:03;;;;;;;;;;;;;;;21.86;61.56;99807.69;7315978;19;129000;-38
2022/09/23 05:13:29;;;;;;;;;;;;;;;21.86;62.24;99792.00;7313805;19;129982;-38
2022/09/23 05:15:57;;;;;;;;;;;;;;;21.85;61.77;99797.34;7314949;19;131222;-40
2022/09/23 05:18:23;;;;;;;;;;;;;;;21.92;62.45;99803.69;7315210;19;129546;-37
2022/09/23 05:20:51;;;;;;;;;;;;;;;21.93;61.73;99797.50;7313809;19;129250;-39
2022/09/23 05:23:16;;;;;;;;;;;;;;;21.87;61.98;99798.88;7314904;19;130054;-37
2022/09/23 05:25:44;;;;;;;;;;;;;;;21.86;61.37;99802.47;7316524;19;129693;-39
2022/09/23 05:28:09;;;;;;;;;;;;;;;21.90;61.81;99813.47;7314797;19;129248;-39
2022/09/23 05:30:34;;;;;;;;;;;;;;;21.91;61.77;99802.84;7315408;19;130186;-36
2022/09/23 05:33:01;;;;;;;;;;;;;;;21.91;62.06;99804.66;7311856;19;128926;-37
2022/09/23 05:35:26;;;;;;;;;;;;;;;21.90;61.39;99806.44;7316450;19;130521;-37
2022/09/23 05:37:52;;;;;;;;;;;;;;;21.92;61.62;99817.63;7316691;19;128808;-37
2022/09/23 05:40:17;;;;;;;;;;;;;;;21.89;61.35;99804.81;7315867;19;129225;-38
2022/09/23 05:42:42;;;;;;;;;;;;;;;21.90;61.48;99811.69;7313665;19;130199;-36
2022/09/23 05:45:07;;;;;;;;;;;;;;;21.93;62.22;99803.56;7315083;19;131031;-39
2022/09/23 05:47:33;;;;;;;;;;;;;;;21.86;62.32;99797.22;7315092;19;129950;-39
2022/09/23 05:49:58;;;;;;;;;;;;;;;21.87;61.55;99798.88;7314185;19;129295;-39
2022/09/23 05:52:24;;;;;;;;;;;;;;;21.86;62.14;99807.69;7311980;19;130171;-38
2022/09/23 05:54:49;;;;;;;;;;;;;;;21.87;61.52;99803.28;7315252;19;129464;-40
2022/09/23 05:57:14;;;;;;;;;;;;;;;21.78;61.60;99788.41;7314557;19;129393;-36
2022/09/23 05:59:41;;;;;;;;;;;;;;;21.86;61.68;99796.41;7316208;19;130178;-36
2022/09/23 06:02:07;;;;;;;;;;;;;;;21.86;62.03;99802.47;7312541;19;130176;-35
2022/09/23 06:04:32;;;;;;;;;;;;;;;21.88;61.50;99805.75;7315612;19;129187;-37
2022/09/23 06:06:57;;;;;;;;;;;;;;;21.89;62.18;99799.56;7316266;19;128881;-38
2022/09/23 06:09:22;;;;;;;;;;;;;;;21.85;61.93;99806.03;7315683;19;129420;-39
2022/09/23 06:11:49;;;;;;;;;;;;;;;21.76;61.90;99785.91;7313710;19;130315;-38
2022/09/23 06:14:14;;;;;;;;;;;;;;;21.86;61.66;99805.09;7313845;19;129679;-37
2022/09/23 06:16:40;;;;;;;;;;;;;;;21.88;62.35;99800.50;7313193;19;130210;-37
2022/09/23 06:19:05;;;;;;;;;;;;;;;21.82;61.73;99787.97;7311278;19;129574;-38
2022/09/23 06:21:31;;;;;;;;;;;;;;;21.85;61.52;99797.34;7313737;19;129226;-40
2022/09/23 06:23:59;;;;;;;;;;;;;;;21.93;61.33;99800.13;7314192;19;128744;-40
2022/09/23 06:26:25;;;;;;;;;;;;;;;21.89;61.16;99794.34;7315574;19;129475;-37
2022/09/23 06:28:50;;;;;;;;;;;;;;;21.76;61.09;99791.16;7315194;19;129722;-39
2022/09/23 06:31:16;;;;;;;;;;;;;;;21.87;62.22;99809.34;7314283;19;129748;-37
2022/09/23 06:33:42;;;;;;;;;;;;;;;21.86;61.96;99802.47;7313362;19;129518;-38
2022/09/23 06:36:08;;;;;;;;;;;;;;;21.88;62.26;99808.38;7313418;19;128995;-36
2022/09/23 06:38:33;;;;;;;;;;;;;;;21.90;62.28;99803.81;7311995;19;129244;-39
2022/09/23 06:41:00;;;;;;;;;;;;;;;21.88;61.96;99808.38;7311979;19;129319;-39
2022/09/23 06:43:25;;;;;;;;;;;;;;;21.87;61.80;99809.34;7313854;19;129808;-38
2022/09/23 06:45:54;;;;;;;;;;;;;;;21.88;61.70;99802.31;7313364;19;128799;-38
2022/09/23 06:48:20;;;;;;;;;;;;;;;21.88;61.72;99802.31;7314292;19;129555;-37
2022/09/23 06:50:45;;;;;;;;;;;;;;;21.85;61.78;99799.94;7303799;19;129767;-39
2022/09/23 06:53:11;;;;;;;;;;;;;;;21.84;62.16;99809.63;7311578;19;129050;-38
2022/09/23 06:55:37;;;;;;;;;;;;;;;21.87;61.92;99803.28;7313850;19;129104;-39
2022/09/23 06:58:02;;;;;;;;;;;;;;;21.86;62.32;99807.69;7313106;19;129429;-37
2022/09/23 07:00:28;;;;;;;;;;;;;;;21.85;62.17;99806.03;7312866;19;130559;-37
2022/09/23 07:02:53;;;;;;;;;;;;;;;21.90;61.81;99803.81;7310855;19;128804;-39
2022/09/23 07:05:21;;;;;;;;;;;;;;;21.80;62.18;99787.28;7313902;19;129668;-39
2022/09/23 07:07:46;;;;;;;;;;;;;;;21.84;62.21;99799.16;7311145;19;129892;-38
2022/09/23 07:10:11;;;;;;;;;;;;;;;21.85;62.03;99806.03;7312754;19;129720;-39
2022/09/23 07:12:37;;;;;;;;;;;;;;;21.85;62.07;99803.41;7311419;19;129541;-38
2022/09/23 07:15:02;;;;;;;;;;;;;;;21.83;61.79;99802.72;7313728;19;129124;-37
2022/09/23 07:17:29;;;;;;;;;;;;;;;21.84;62.30;99804.38;7313721;19;130003;-38
2022/09/23 07:19:54;;;;;;;;;;;;;;;21.86;62.21;99812.94;7313252;19;129564;-35
2022/09/23 07:22:20;;;;;;;;;;;;;;;21.87;62.18;99811.97;7312214;19;129432;-38
2022/09/23 07:24:45;;;;;;;;;;;;;;;21.86;62.00;99812.94;7314366;19;129278;-36
2022/09/23 07:27:11;;;;;;;;;;;;;;;21.87;61.54;99806.72;7313429;19;129864;-38
2022/09/23 07:29:36;;;;;;;;;;;;;;;21.84;61.47;99814.00;7312947;19;130298;-38
2022/09/23 07:32:02;;;;;;;;;;;;;;;21.86;61.69;99812.09;7311984;19;129731;-37
2022/09/23 07:34:27;;;;;;;;;;;;;;;21.88;61.68;99816.22;7312815;19;128992;-38
2022/09/23 07:36:52;;;;;;;;;;;;;;;21.85;61.90;99813.03;7312010;19;129339;-39
2022/09/23 07:39:18;;;;;;;;;;;;;;;21.84;61.90;99807.00;7310508;19;129272;-37
2022/09/23 07:41:43;;;;;;;;;;;;;;;21.85;62.00;99803.41;7310636;19;129313;-37
2022/09/23 07:44:10;;;;;;;;;;;;;;;21.82;62.23;99805.47;7312791;19;129046;-39
2022/09/23 07:46:36;;;;;;;;;;;;;;;21.82;62.45;99806.31;7312732;19;129806;-38
2022/09/23 07:49:02;;;;;;;;;;;;;;;21.82;62.03;99808.91;7311922;19;130620;-38
2022/09/23 07:51:28;;;;;;;;;;;;;;;21.81;62.15;99803.81;7309856;19;129590;-43
2022/09/23 07:53:54;;;;;;;;;;;;;;;21.79;62.40;99798.72;7309679;19;128898;-38
2022/09/23 07:56:21;;;;;;;;;;;;;;;21.83;61.63;99802.72;7311503;19;129210;-36
2022/09/23 07:58:58;;;;;;;;;;;;;;;21.85;61.72;99811.25;7310252;19;130435;-40
2022/09/23 08:01:24;;;;;;;;;;;;;;;21.86;61.96;99807.69;7310160;19;128998;-38
2022/09/23 08:03:49;;;;;;;;;;;;;;;21.76;62.15;99791.16;7312737;19;129448;-38
2022/09/23 08:06:14;;;;;;;;;;;;;;;21.87;62.30;99805.88;7309948;19;129565;-41
2022/09/23 08:08:42;;;;;;;;;;;;;;;21.84;62.08;99809.63;7296951;19;129745;-39
2022/09/23 08:11:09;;;;;;;;;;;;;;;21.83;61.84;99817.59;7304007;19;129013;-42
2022/09/23 08:13:34;;;;;;;;;;;;;;;21.78;62.31;99819.81;7303307;19;130426;-41
2022/09/23 08:15:59;;;;;;;;;;;;;;;21.74;61.84;99807.91;7310088;19;129498;-38
2022/09/23 08:18:24;;;;;;;;;;;;;;;21.72;61.57;99800.19;7309240;19;129744;-38
2022/09/23 08:20:50;;;;;;;;;;;;;;;21.80;61.70;99816.06;7303802;19;129545;-39
2022/09/23 08:23:15;;;;;;;;;;;;;;;21.70;62.57;99796.06;7315685;19;129075;-39
2022/09/23 08:25:42;;;;;;;;;;;;;;;21.79;62.37;99810.97;7318722;19;130205;-35
2022/09/23 08:28:07;;;;;;;;;;;;;;;21.85;62.47;99810.41;7318484;19;129300;-37
2022/09/23 08:30:32;;;;;;;;;;;;;;;21.87;62.43;99814.56;7317458;19;128979;-38
2022/09/23 08:32:58;;;;;;;;;;;;;;;21.78;61.70;99804.09;7315382;19;129615;-39
2022/09/23 08:35:23;;;;;;;;;;;;;;;21.84;61.89;99809.63;7316935;19;129122;-38
2022/09/23 08:37:49;;;;;;;;;;;;;;;21.87;62.12;99804.09;7315751;19;130787;-40
2022/09/23 08:40:15;;;;;;;;;;;;;;;21.84;61.55;99809.63;7316002;19;129194;-39
2022/09/23 08:42:42;;;;;;;;;;;;;;;21.78;61.47;99789.19;7313374;19;129553;-37
2022/09/23 08:45:13;;;;;;;;;;;;;;;21.88;61.74;99803.13;7314963;19;129630;-38
2022/09/23 08:47:38;;;;;;;;;;;;;;;21.88;61.73;99795.28;7315576;19;129447;-39
2022/09/23 08:50:07;;;;;;;;;;;;;;;21.87;62.25;99798.88;7316373;19;129730;-36
2022/09/23 08:52:41;;;;;;;;;;;;;;;21.82;62.14;99785.38;7314603;19;129487;-39
2022/09/23 08:55:10;;;;;;;;;;;;;;;21.84;61.71;99783.44;7315733;19;130210;-38
2022/09/23 08:57:41;;;;;;;;;;;;;;;21.84;61.97;99786.06;7316840;19;129186;-38
2022/09/23 09:00:13;;;;;;;;;;;;;;;21.84;61.92;99783.44;7316397;19;128658;-38
2022/09/23 09:02:38;;;;;;;;;;;;;;;21.86;62.28;99778.91;7315059;19;130390;-40
2022/09/23 09:05:09;;;;;;;;;;;;;;;21.87;62.40;99785.78;7316920;19;129866;-37
2022/09/23 09:07:36;;;;;;;;;;;;;;;21.88;62.21;99787.41;7316580;19;131046;-37
2022/09/23 09:10:17;;;;;;;;;;;;;;;21.86;62.02;99781.53;7316401;19;129002;-38
2022/09/23 09:12:44;;;;;;;;;;;;;;;21.85;62.08;99774.63;7314482;19;129418;-37
2022/09/23 09:15:35;;;;;;;;;;;;;;;21.86;62.01;99778.91;7315768;19;129068;-39
2022/09/23 09:18:06;;;;;;;;;;;;;;;21.83;61.44;99781.78;7311707;19;131903;-39
2022/09/23 09:20:37;;;;;;;;;;;;;;;21.84;61.95;99780.81;7316770;19;128992;-39
2022/09/23 09:23:26;;;;;;;;;;;;;;;21.86;61.87;99776.28;7314088;19;129457;-38
2022/09/23 09:25:52;;;;;;;;;;;;;;;21.84;62.40;99777.38;7315288;19;129402;-39
2022/09/23 09:28:38;;;;;;;;;;;;;;;21.84;61.75;99770.34;7315237;19;129121;-38
2022/09/23 09:31:10;;;;;;;;;;;;;;;21.71;62.43;99761.09;7312737;19;129665;-40
2022/09/23 09:33:39;;;;;;;;;;;;;;;21.74;62.21;99755.56;7315385;19;129707;-40
2022/09/23 09:36:19;;;;;;;;;;;;;;;21.88;61.44;99769.09;7316022;19;129465;-37
2022/09/23 09:38:45;;;;;;;;;;;;;;;21.89;61.90;99770.78;7314218;19;129685;-36
2022/09/23 09:41:12;;;;;;;;;;;;;;;21.84;62.03;99772.97;7314108;19;129251;-37
2022/09/23 09:43:39;;;;;;;;;;;;;;;21.86;61.86;99770.22;7315095;19;128903;-40
2022/09/23 09:46:28;;;;;;;;;;;;;;;21.74;62.01;99750.34;7315737;19;129631;-38
2022/09/23 09:49:22;;;;;;;;;;;;;;;21.86;62.49;99757.97;7316452;19;129754;-37
2022/09/23 09:51:47;;;;;;;;;;;;;;;21.85;62.49;99752.84;7311367;19;129178;-41
2022/09/23 09:54:17;;;;;;;;;;;;;;;21.82;62.16;99753.13;7315083;19;129265;-38
2022/09/23 09:56:43;;;;;;;;;;;;;;;21.83;62.18;99750.38;7314769;19;129256;-38
2022/09/23 09:59:10;;;;;;;;;;;;;;;21.82;62.46;99756.56;7313465;19;130675;-37
2022/09/23 10:01:35;;;;;;;;;;;;;;;21.85;62.16;99748.44;7312943;19;129160;-36
2022/09/23 10:04:02;;;;;;;;;;;;;;;21.86;62.62;99750.13;7315048;19;128901;-38
2022/09/23 10:06:30;;;;;;;;;;;;;;;21.87;62.69;99743.06;7314083;19;130946;-36
2022/09/23 10:09:04;;;;;;;;;;;;;;;21.87;61.74;99741.28;7314458;19;130364;-37
2022/09/23 10:11:31;;;;;;;;;;;;;;;21.82;62.32;99738.25;7311199;19;128915;-38
2022/09/23 10:14:01;;;;;;;;;;;;;;;21.85;62.11;99734.53;7314304;19;129422;-40
2022/09/23 10:16:29;;;;;;;;;;;;;;;21.85;61.42;99727.50;7315634;19;131153;-38
2022/09/23 10:18:56;;;;;;;;;;;;;;;21.85;62.10;99727.50;7313552;19;130391;-37
2022/09/23 10:21:22;;;;;;;;;;;;;;;21.86;61.93;99729.19;7313614;19;129088;-36
2022/09/23 10:23:51;;;;;;;;;;;;;;;21.86;62.25;99731.78;7315815;19;129434;-39
2022/09/23 10:26:17;;;;;;;;;;;;;;;21.83;61.81;99723.38;7315193;19;129431;-38
2022/09/23 10:28:45;;;;;;;;;;;;;;;21.81;61.85;99727.94;7313155;19;129402;-39
2022/09/23 10:31:13;;;;;;;;;;;;;;;21.82;61.97;99726.94;7313587;19;129017;-39
2022/09/23 10:33:48;;;;;;;;;;;;;;;21.85;61.74;99722.28;7314416;19;129348;-37
2022/09/23 10:36:17;;;;;;;;;;;;;;;21.83;61.97;99724.19;7312283;19;129766;-39
2022/09/23 10:38:43;;;;;;;;;;;;;;;21.85;62.65;99722.28;7313148;19;129423;-39
2022/09/23 10:47:13;;;;;;;;;;;;;;;21.86;61.99;99715.25;7313695;19;130540;-37
2022/09/23 10:49:54;;;;;;;;;;;;;;;21.82;61.80;99712.09;7313768;19;130405;-39
2022/09/23 10:52:31;;;;;;;;;;;;;;;21.78;62.30;99715.13;7312636;19;129243;-39
2022/09/23 10:54:56;;;;;;;;;;;;;;;21.80;62.80;99710.56;7313304;19;128886;-39
2022/09/23 10:57:38;;;;;;;;;;;;;;;21.81;62.68;99697.34;7313416;19;129559;-37
2022/09/23 11:00:27;;;;;;;;;;;;;;;21.81;62.36;99694.75;7308578;19;129603;-37
2022/09/23 11:03:11;;;;;;;;;;;;;;;21.83;61.90;99697.22;7309584;19;129176;-38
2022/09/23 11:05:39;;;;;;;;;;;;;;;21.87;62.72;99694.16;7314016;19;129026;-39
2022/09/23 11:08:26;;;;;;;;;;;;;;;21.86;62.02;99691.69;7310810;19;129567;-37
2022/09/23 11:11:10;;;;;;;;;;;;;;;21.85;62.39;99690.88;7311878;19;129932;-39
2022/09/23 11:13:39;;;;;;;;;;;;;;;21.82;62.50;99685.91;7311504;19;128796;-39
2022/09/23 11:16:21;;;;;;;;;;;;;;;21.73;62.41;99660.53;7312432;19;129220;-37
2022/09/23 11:18:54;;;;;;;;;;;;;;;21.84;62.07;99675.31;7309990;19;130196;-37
2022/09/23 11:21:39;;;;;;;;;;;;;;;21.81;62.43;99679.03;7310314;19;131031;-37
2022/09/23 11:24:20;;;;;;;;;;;;;;;21.78;62.30;99674.06;7313174;19;128767;-36
2022/09/23 11:26:45;;;;;;;;;;;;;;;21.83;62.72;99677.06;7310654;19;128867;-40
2022/09/23 11:29:10;;;;;;;;;;;;;;;21.76;62.12;99647.22;7308230;19;129217;-37
2022/09/23 11:31:36;;;;;;;;;;;;;;;21.85;62.22;99663.84;7311737;19;129177;-38
2022/09/23 11:34:21;;;;;;;;;;;;;;;21.81;61.97;99665.94;7313632;19;128939;-38
2022/09/23 11:36:52;;;;;;;;;;;;;;;21.84;61.92;99660.44;7311532;19;129230;-38
2022/09/23 11:39:22;;;;;;;;;;;;;;;21.80;62.02;99663.44;7305536;19;129235;-37
2022/09/23 11:41:51;;;;;;;;;;;;;;;21.82;62.41;99657.13;7310625;19;129192;-40
2022/09/23 11:44:19;;;;;;;;;;;;;;;21.80;62.38;99660.81;7312735;19;130088;-35
2022/09/23 11:46:51;;;;;;;;;;;;;;;21.77;62.42;99654.09;7313073;19;129210;-39
2022/09/23 11:49:24;;;;;;;;;;;;;;;21.81;62.26;99658.09;7310929;19;129462;-39
2022/09/23 11:52:01;;;;;;;;;;;;;;;21.83;62.41;99650.91;7310598;19;129345;-39
2022/09/23 11:54:37;;;;;;;;;;;;;;;21.83;62.41;99648.28;7315001;19;129109;-37
2022/09/23 11:57:05;;;;;;;;;;;;;;;21.82;62.57;99644.03;7318627;19;129375;-38
2022/09/23 11:59:33;;;;;;;;;;;;;;;21.83;62.29;99635.22;7316508;19;129525;-38
2022/09/23 12:02:13;;;;;;;;;;;;;;;21.82;62.49;99630.94;7317501;19;129929;-40
2022/09/23 12:04:41;;;;;;;;;;;;;;;21.80;62.33;99635.50;7319614;19;128962;-39
2022/09/23 12:07:07;;;;;;;;;;;;;;;21.86;62.27;99628.88;7318824;19;130826;-39
2022/09/23 12:09:40;;;;;;;;;;;;;;;21.85;61.73;99628.03;7317921;19;129454;-38
2022/09/23 12:12:16;;;;;;;;;;;;;;;21.83;62.26;99627.34;7316081;19;129358;-39
2022/09/23 12:14:41;;;;;;;;;;;;;;;21.83;62.32;99624.75;7319395;19;129063;-38
2022/09/23 12:17:26;;;;;;;;;;;;;;;21.82;62.46;99628.34;7318950;19;130854;-37
2022/09/23 12:20:10;;;;;;;;;;;;;;;21.79;62.26;99618.16;7316057;19;129220;-38
2022/09/23 12:22:53;;;;;;;;;;;;;;;21.74;62.05;99604.63;7315887;19;129400;-39
2022/09/23 12:25:31;;;;;;;;;;;;;;;21.79;61.94;99615.53;7317529;19;130406;-41
2022/09/23 12:28:00;;;;;;;;;;;;;;;21.83;62.41;99614.28;7316887;19;129728;-37
2022/09/23 12:30:27;;;;;;;;;;;;;;;21.86;62.04;99624.47;7316128;19;129511;-37
2022/09/23 12:33:06;;;;;;;;;;;;;;;21.85;62.24;99611.50;7313668;19;131159;-39
2022/09/23 12:35:36;;;;;;;;;;;;;;;21.81;62.72;99610.16;7318065;19;128905;-39
2022/09/23 12:38:10;;;;;;;;;;;;;;;21.82;61.77;99615.25;7316977;19;128998;-38
2022/09/23 12:40:42;;;;;;;;;;;;;;;21.83;62.09;99606.41;7316626;19;129532;-39
2022/09/23 12:43:18;;;;;;;;;;;;;;;21.84;61.79;99605.47;7315244;19;130350;-40
2022/09/23 12:45:44;;;;;;;;;;;;;;;21.85;61.97;99607.09;7316641;19;130226;-38
2022/09/23 12:48:15;;;;;;;;;;;;;;;21.83;62.52;99603.81;7316485;19;129142;-35
2022/09/23 12:50:57;;;;;;;;;;;;;;;21.86;62.30;99607.94;7315673;19;129263;-37
2022/09/23 12:53:34;;;;;;;;;;;;;;;21.82;61.99;99604.78;7316034;19;129620;-37
2022/09/23 12:56:00;;;;;;;;;;;;;;;21.81;62.15;99592.66;7316960;19;129698;-36